DAL58 RJTT-KLAX
Flight info
| Callsign | DAL58 |
|---|---|
| Flight time | N/A |
| Altitude | 39000 |
| Route | ROVER3A INUBO Y808 NOLAX Y812 ADNAP OTR7 EMRON DCT 41N160E 45N170E 48N180E 49N170W 48N160W 47N150W 45N140W 42N130W DCT VESPA DCT ENI DCT OAK DCT BURGL IRNMN2 |
| Aircraft | A359/H-SDE2E3GHIJ1J3J4J5LM1ORWXYZ/LB1D1 |
Departure
| Time | N/A |
|---|---|
| Airport | Tokyo Haneda International Airport (RJTT) |
Arrival
| Time | 2026-04-24 08:49 |
|---|---|
| Airport | Los Angeles International Airport (KLAX) |
| Time | Latitude | Longitude | Altitude | Speed | Heading |
|---|---|---|---|---|---|
| 2026-04-24 07:59 | 35.52440 | -120.05147 | 39066 ft | 435 kts | 195° |
| 2026-04-24 08:00 | 35.49515 | -120.05862 | 39066 ft | 424 kts | 204° |
| 2026-04-24 08:00 | 35.46725 | -120.06996 | 39072 ft | 422 kts | 208° |
| 2026-04-24 08:00 | 35.41614 | -120.10352 | 38987 ft | 419 kts | 223° |
| 2026-04-24 08:01 | 35.39424 | -120.12707 | 38882 ft | 419 kts | 231° |
| 2026-04-24 08:01 | 35.37598 | -120.15455 | 38762 ft | 414 kts | 239° |
| 2026-04-24 08:01 | 35.36182 | -120.18505 | 38639 ft | 410 kts | 247° |
| 2026-04-24 08:01 | 35.35197 | -120.21772 | 38499 ft | 409 kts | 255° |
| 2026-04-24 08:02 | 35.34648 | -120.25188 | 38357 ft | 409 kts | 262° |
| 2026-04-24 08:02 | 35.34470 | -120.28675 | 38217 ft | 410 kts | 263° |
| 2026-04-24 08:02 | 35.34021 | -120.32124 | 38066 ft | 411 kts | 257° |
| 2026-04-24 08:02 | 35.33201 | -120.35472 | 37676 ft | 411 kts | 250° |
| 2026-04-24 08:03 | 35.32011 | -120.38617 | 37242 ft | 415 kts | 243° |
| 2026-04-24 08:03 | 35.30422 | -120.41587 | 36825 ft | 420 kts | 236° |
| 2026-04-24 08:03 | 35.28469 | -120.44265 | 36405 ft | 425 kts | 228° |
| 2026-04-24 08:03 | 35.26174 | -120.46588 | 36006 ft | 432 kts | 220° |
| 2026-04-24 08:04 | 35.23569 | -120.48489 | 35576 ft | 441 kts | 212° |
| 2026-04-24 08:04 | 35.20693 | -120.49898 | 35186 ft | 451 kts | 204° |
| 2026-04-24 08:04 | 35.17602 | -120.50749 | 34795 ft | 461 kts | 195° |
| 2026-04-24 08:04 | 35.14366 | -120.50982 | 34442 ft | 472 kts | 186° |
| 2026-04-24 08:05 | 35.11071 | -120.50546 | 34059 ft | 482 kts | 176° |
| 2026-04-24 08:05 | 35.07822 | -120.49411 | 33627 ft | 491 kts | 166° |
| 2026-04-24 08:05 | 35.04770 | -120.47606 | 33210 ft | 499 kts | 156° |
| 2026-04-24 08:05 | 35.01943 | -120.45108 | 32757 ft | 506 kts | 145° |
| 2026-04-24 08:06 | 34.99488 | -120.41994 | 32342 ft | 513 kts | 134° |
| 2026-04-24 08:06 | 34.97514 | -120.38357 | 31969 ft | 518 kts | 122° |
| 2026-04-24 08:06 | 34.96100 | -120.34313 | 31579 ft | 520 kts | 110° |
| 2026-04-24 08:06 | 34.95199 | -120.30060 | 31217 ft | 517 kts | 106° |
| 2026-04-24 08:07 | 34.94786 | -120.25712 | 30851 ft | 517 kts | 89° |
| 2026-04-24 08:07 | 34.95287 | -120.21411 | 30496 ft | 513 kts | 73° |
| 2026-04-24 08:07 | 34.96619 | -120.17479 | 30132 ft | 506 kts | 57° |
| 2026-04-24 08:07 | 34.98709 | -120.14094 | 29722 ft | 495 kts | 41° |
| 2026-04-24 08:08 | 35.01258 | -120.11335 | 29308 ft | 490 kts | 39° |
| 2026-04-24 08:08 | 35.03396 | -120.08087 | 28899 ft | 493 kts | 57° |
| 2026-04-24 08:08 | 35.04852 | -120.04309 | 28502 ft | 493 kts | 70° |
| 2026-04-24 08:09 | 35.05793 | -119.96137 | 27728 ft | 485 kts | 94° |
| 2026-04-24 08:09 | 35.05503 | -119.92062 | 27325 ft | 480 kts | 104° |
| 2026-04-24 08:09 | 35.04445 | -119.88249 | 26948 ft | 472 kts | 116° |
| 2026-04-24 08:09 | 35.03136 | -119.84624 | 26572 ft | 469 kts | 116° |
| 2026-04-24 08:10 | 35.01862 | -119.80975 | 26182 ft | 466 kts | 115° |
| 2026-04-24 08:10 | 35.00652 | -119.77313 | 25826 ft | 463 kts | 114° |
| 2026-04-24 08:10 | 34.99490 | -119.73664 | 25457 ft | 461 kts | 114° |
| 2026-04-24 08:10 | 34.98366 | -119.70058 | 25108 ft | 460 kts | 113° |
| 2026-04-24 08:11 | 34.97245 | -119.66418 | 24735 ft | 458 kts | 113° |
| 2026-04-24 08:11 | 34.96136 | -119.62791 | 24394 ft | 455 kts | 113° |
| 2026-04-24 08:11 | 34.95037 | -119.59190 | 24049 ft | 452 kts | 113° |
| 2026-04-24 08:11 | 34.93945 | -119.55608 | 23706 ft | 449 kts | 112° |
| 2026-04-24 08:12 | 34.92834 | -119.52066 | 23313 ft | 446 kts | 116° |
| 2026-04-24 08:12 | 34.91388 | -119.48769 | 22936 ft | 438 kts | 127° |
| 2026-04-24 08:12 | 34.89456 | -119.45956 | 22564 ft | 429 kts | 140° |
| 2026-04-24 08:12 | 34.87173 | -119.43664 | 22205 ft | 423 kts | 147° |
| 2026-04-24 08:13 | 34.84844 | -119.41579 | 21825 ft | 420 kts | 148° |
| 2026-04-24 08:13 | 34.82487 | -119.39495 | 21466 ft | 418 kts | 148° |
| 2026-04-24 08:13 | 34.80139 | -119.37413 | 21113 ft | 416 kts | 148° |
| 2026-04-24 08:13 | 34.77816 | -119.35350 | 20762 ft | 411 kts | 148° |
| 2026-04-24 08:14 | 34.75529 | -119.33318 | 20416 ft | 404 kts | 148° |
| 2026-04-24 08:14 | 34.73274 | -119.31333 | 20073 ft | 397 kts | 149° |
| 2026-04-24 08:14 | 34.71045 | -119.29386 | 19728 ft | 393 kts | 149° |
| 2026-04-24 08:14 | 34.68831 | -119.27453 | 19394 ft | 391 kts | 149° |
| 2026-04-24 08:15 | 34.66627 | -119.25530 | 19064 ft | 389 kts | 149° |
| 2026-04-24 08:15 | 34.64461 | -119.23647 | 18742 ft | 387 kts | 149° |
| 2026-04-24 08:15 | 34.62267 | -119.21750 | 18416 ft | 386 kts | 149° |
| 2026-04-24 08:15 | 34.60086 | -119.19869 | 18071 ft | 384 kts | 149° |
| 2026-04-24 08:16 | 34.57911 | -119.17996 | 17695 ft | 382 kts | 149° |
| 2026-04-24 08:16 | 34.55756 | -119.16124 | 17320 ft | 380 kts | 148° |
| 2026-04-24 08:16 | 34.53625 | -119.14238 | 16962 ft | 378 kts | 148° |
| 2026-04-24 08:16 | 34.51502 | -119.12358 | 16606 ft | 376 kts | 148° |
| 2026-04-24 08:17 | 34.49398 | -119.10496 | 16246 ft | 374 kts | 148° |
| 2026-04-24 08:17 | 34.47302 | -119.08640 | 15892 ft | 372 kts | 148° |
| 2026-04-24 08:17 | 34.45239 | -119.06818 | 15555 ft | 371 kts | 148° |
| 2026-04-24 08:17 | 34.43151 | -119.04990 | 15216 ft | 369 kts | 148° |
| 2026-04-24 08:18 | 34.41073 | -119.03180 | 14889 ft | 367 kts | 148° |
| 2026-04-24 08:18 | 34.38997 | -119.01387 | 14592 ft | 366 kts | 148° |
| 2026-04-24 08:18 | 34.36938 | -118.99607 | 14286 ft | 364 kts | 148° |
| 2026-04-24 08:18 | 34.34877 | -118.97824 | 13983 ft | 363 kts | 147° |
| 2026-04-24 08:19 | 34.32849 | -118.96017 | 13677 ft | 360 kts | 146° |
| 2026-04-24 08:19 | 34.30864 | -118.94217 | 13314 ft | 353 kts | 146° |
| 2026-04-24 08:19 | 34.28944 | -118.92473 | 12980 ft | 347 kts | 146° |
| 2026-04-24 08:19 | 34.27032 | -118.90737 | 12640 ft | 340 kts | 146° |
| 2026-04-24 08:20 | 34.25159 | -118.89030 | 12316 ft | 334 kts | 146° |
| 2026-04-24 08:20 | 34.23324 | -118.87345 | 11989 ft | 329 kts | 146° |
| 2026-04-24 08:20 | 34.21520 | -118.85688 | 11667 ft | 323 kts | 146° |
| 2026-04-24 08:20 | 34.19739 | -118.84052 | 11342 ft | 318 kts | 146° |
| 2026-04-24 08:21 | 34.17990 | -118.82447 | 11039 ft | 314 kts | 146° |
| 2026-04-24 08:21 | 34.16287 | -118.80823 | 10716 ft | 310 kts | 142° |
| 2026-04-24 08:21 | 34.14675 | -118.79112 | 10415 ft | 306 kts | 140° |
| 2026-04-24 08:21 | 34.13124 | -118.77422 | 10177 ft | 303 kts | 140° |
| 2026-04-24 08:22 | 34.11564 | -118.75718 | 9934 ft | 303 kts | 140° |
| 2026-04-24 08:22 | 34.09999 | -118.74013 | 9680 ft | 302 kts | 140° |
| 2026-04-24 08:22 | 34.08448 | -118.72323 | 9427 ft | 301 kts | 140° |
| 2026-04-24 08:22 | 34.06896 | -118.70634 | 9165 ft | 299 kts | 140° |
| 2026-04-24 08:23 | 34.05355 | -118.68965 | 8923 ft | 296 kts | 140° |
| 2026-04-24 08:23 | 34.03886 | -118.67266 | 8656 ft | 291 kts | 133° |
| 2026-04-24 08:23 | 34.02918 | -118.65167 | 8400 ft | 287 kts | 107° |
| 2026-04-24 08:23 | 34.02561 | -118.62821 | 8150 ft | 284 kts | 97° |
| 2026-04-24 08:24 | 34.02353 | -118.60489 | 7932 ft | 282 kts | 96° |
| 2026-04-24 08:24 | 34.02155 | -118.58144 | 7769 ft | 281 kts | 96° |
| 2026-04-24 08:24 | 34.01949 | -118.55803 | 7625 ft | 280 kts | 97° |
| 2026-04-24 08:24 | 34.01740 | -118.53483 | 7461 ft | 274 kts | 97° |
| 2026-04-24 08:25 | 34.01534 | -118.51240 | 7320 ft | 265 kts | 97° |
| 2026-04-24 08:25 | 34.01333 | -118.49076 | 7168 ft | 256 kts | 97° |
| 2026-04-24 08:25 | 34.01139 | -118.46984 | 7013 ft | 247 kts | 97° |
| 2026-04-24 08:25 | 34.01163 | -118.44942 | 6866 ft | 242 kts | 83° |
| 2026-04-24 08:26 | 34.01455 | -118.42977 | 6717 ft | 241 kts | 78° |
| 2026-04-24 08:26 | 34.01803 | -118.41005 | 6590 ft | 240 kts | 78° |
| 2026-04-24 08:26 | 34.02153 | -118.39039 | 6439 ft | 239 kts | 78° |
| 2026-04-24 08:26 | 34.02496 | -118.37084 | 6293 ft | 238 kts | 78° |
| 2026-04-24 08:27 | 34.02774 | -118.35113 | 6145 ft | 238 kts | 82° |
| 2026-04-24 08:27 | 34.02992 | -118.33142 | 5991 ft | 237 kts | 83° |
| 2026-04-24 08:27 | 34.03195 | -118.31178 | 5842 ft | 237 kts | 83° |
| 2026-04-24 08:27 | 34.03407 | -118.29204 | 5682 ft | 236 kts | 82° |
| 2026-04-24 08:28 | 34.03624 | -118.27251 | 5540 ft | 235 kts | 82° |
| 2026-04-24 08:28 | 34.03842 | -118.25302 | 5383 ft | 234 kts | 82° |
| 2026-04-24 08:28 | 34.04057 | -118.23383 | 5242 ft | 234 kts | 82° |
| 2026-04-24 08:28 | 34.04274 | -118.21443 | 5093 ft | 233 kts | 82° |
| 2026-04-24 08:29 | 34.04488 | -118.19513 | 4940 ft | 233 kts | 82° |
| 2026-04-24 08:29 | 34.04704 | -118.17577 | 4795 ft | 233 kts | 82° |
| 2026-04-24 08:29 | 34.04920 | -118.15643 | 4635 ft | 233 kts | 82° |
| 2026-04-24 08:29 | 34.05136 | -118.13709 | 4492 ft | 232 kts | 82° |
| 2026-04-24 08:30 | 34.05358 | -118.11784 | 4332 ft | 236 kts | 79° |
| 2026-04-24 08:30 | 34.05778 | -118.09740 | 4209 ft | 263 kts | 75° |
| 2026-04-24 08:30 | 34.06217 | -118.07558 | 4064 ft | 271 kts | 77° |
| 2026-04-24 08:30 | 34.06380 | -118.05334 | 3880 ft | 270 kts | 94° |
| 2026-04-24 08:31 | 34.05910 | -118.03166 | 3677 ft | 268 kts | 117° |
| 2026-04-24 08:31 | 34.04717 | -118.01484 | 3478 ft | 266 kts | 145° |
| 2026-04-24 08:31 | 34.02998 | -118.00763 | 3280 ft | 264 kts | 178° |
| 2026-04-24 08:31 | 34.01253 | -118.01314 | 3092 ft | 262 kts | 212° |
| 2026-04-24 08:32 | 33.99998 | -118.02883 | 2995 ft | 262 kts | 234° |
| 2026-04-24 08:32 | 33.99091 | -118.04786 | 2984 ft | 263 kts | 248° |
| 2026-04-24 08:32 | 33.98600 | -118.06873 | 2987 ft | 263 kts | 259° |
| 2026-04-24 08:32 | 33.98359 | -118.09059 | 2980 ft | 263 kts | 263° |
| 2026-04-24 08:33 | 33.98162 | -118.11200 | 2974 ft | 249 kts | 263° |
| 2026-04-24 08:33 | 33.97972 | -118.13204 | 2977 ft | 233 kts | 263° |
| 2026-04-24 08:33 | 33.97792 | -118.15078 | 2963 ft | 218 kts | 263° |
| 2026-04-24 08:33 | 33.97619 | -118.16837 | 2912 ft | 206 kts | 263° |
| 2026-04-24 08:34 | 33.97447 | -118.18527 | 2743 ft | 201 kts | 262° |
| 2026-04-24 08:34 | 33.97274 | -118.20185 | 2632 ft | 196 kts | 262° |
| 2026-04-24 08:34 | 33.97109 | -118.21754 | 2545 ft | 183 kts | 262° |
| 2026-04-24 08:34 | 33.96952 | -118.23250 | 2442 ft | 177 kts | 262° |
| 2026-04-24 08:35 | 33.96807 | -118.24651 | 2332 ft | 166 kts | 262° |
| 2026-04-24 08:35 | 33.96667 | -118.26004 | 2209 ft | 162 kts | 262° |
| 2026-04-24 08:35 | 33.96525 | -118.27347 | 2199 ft | 162 kts | 262° |
| 2026-04-24 08:35 | 33.96386 | -118.28685 | 2028 ft | 159 kts | 262° |
| 2026-04-24 08:36 | 33.96251 | -118.30011 | 1787 ft | 160 kts | 262° |
| 2026-04-24 08:36 | 33.96115 | -118.31337 | 1546 ft | 160 kts | 262° |
| 2026-04-24 08:36 | 33.95979 | -118.32662 | 1345 ft | 159 kts | 262° |
| 2026-04-24 08:36 | 33.95846 | -118.33984 | 1107 ft | 161 kts | 262° |
| 2026-04-24 08:37 | 33.95726 | -118.35335 | 924 ft | 163 kts | 263° |
| 2026-04-24 08:37 | 33.95587 | -118.36705 | 632 ft | 171 kts | 263° |
| 2026-04-24 08:37 | 33.95423 | -118.38117 | 481 ft | 173 kts | 262° |
| 2026-04-24 08:37 | 33.95272 | -118.39547 | 277 ft | 167 kts | 263° |
| 2026-04-24 08:38 | 33.95133 | -118.40883 | 118 ft | 153 kts | 264° |
| 2026-04-24 08:38 | 33.95012 | -118.42087 | 179 ft | 145 kts | 264° |
| 2026-04-24 08:38 | 33.94911 | -118.43483 | 685 ft | 192 kts | 266° |
| 2026-04-24 08:38 | 33.95199 | -118.45116 | 1521 ft | 203 kts | 299° |
| 2026-04-24 08:39 | 33.96280 | -118.46265 | 2033 ft | 222 kts | 335° |
| 2026-04-24 08:39 | 33.97790 | -118.46826 | 2546 ft | 238 kts | 350° |
| 2026-04-24 08:39 | 33.99483 | -118.46797 | 3162 ft | 252 kts | 15° |
| 2026-04-24 08:39 | 34.00979 | -118.45677 | 3880 ft | 260 kts | 50° |
| 2026-04-24 08:40 | 34.01747 | -118.43689 | 4572 ft | 269 kts | 76° |
| 2026-04-24 08:40 | 34.02050 | -118.41442 | 4918 ft | 273 kts | 83° |
| 2026-04-24 08:40 | 34.02276 | -118.39159 | 4998 ft | 275 kts | 83° |
| 2026-04-24 08:40 | 34.02516 | -118.36867 | 5001 ft | 276 kts | 82° |
| 2026-04-24 08:41 | 34.02774 | -118.34579 | 4999 ft | 275 kts | 82° |
| 2026-04-24 08:41 | 34.03043 | -118.32301 | 4997 ft | 274 kts | 82° |
| 2026-04-24 08:41 | 34.03311 | -118.30055 | 4995 ft | 274 kts | 82° |
| 2026-04-24 08:41 | 34.03570 | -118.27772 | 4996 ft | 275 kts | 82° |
| 2026-04-24 08:42 | 34.03824 | -118.25493 | 4995 ft | 274 kts | 82° |
| 2026-04-24 08:42 | 34.04077 | -118.23215 | 4992 ft | 274 kts | 82° |
| 2026-04-24 08:42 | 34.04332 | -118.20931 | 4991 ft | 275 kts | 82° |
| 2026-04-24 08:42 | 34.04585 | -118.18647 | 4991 ft | 276 kts | 82° |
| 2026-04-24 08:43 | 34.04839 | -118.16355 | 4993 ft | 276 kts | 82° |
| 2026-04-24 08:43 | 34.04868 | -118.14036 | 4959 ft | 277 kts | 97° |
| 2026-04-24 08:43 | 34.04292 | -118.11872 | 4842 ft | 276 kts | 120° |
| 2026-04-24 08:43 | 34.03013 | -118.10206 | 4663 ft | 271 kts | 148° |
| 2026-04-24 08:44 | 34.01239 | -118.09618 | 4475 ft | 265 kts | 184° |
| 2026-04-24 08:44 | 33.99528 | -118.10333 | 4148 ft | 265 kts | 217° |
| 2026-04-24 08:44 | 33.98429 | -118.12062 | 3804 ft | 261 kts | 246° |
| 2026-04-24 08:44 | 33.97854 | -118.14159 | 3198 ft | 269 kts | 257° |
| 2026-04-24 08:45 | 33.97662 | -118.16402 | 2801 ft | 268 kts | 268° |
| 2026-04-24 08:45 | 33.97636 | -118.18609 | 2634 ft | 257 kts | 266° |
| 2026-04-24 08:45 | 33.97396 | -118.20678 | 2584 ft | 242 kts | 260° |
| 2026-04-24 08:45 | 33.97113 | -118.22618 | 2422 ft | 235 kts | 259° |
| 2026-04-24 08:46 | 33.96827 | -118.24531 | 2213 ft | 230 kts | 260° |
| 2026-04-24 08:46 | 33.96607 | -118.26404 | 2092 ft | 220 kts | 262° |
| 2026-04-24 08:46 | 33.96436 | -118.28179 | 1999 ft | 205 kts | 263° |
| 2026-04-24 08:46 | 33.96305 | -118.29802 | 1862 ft | 186 kts | 263° |
| 2026-04-24 08:47 | 33.96145 | -118.31295 | 1623 ft | 175 kts | 260° |
| 2026-04-24 08:47 | 33.95989 | -118.32705 | 1358 ft | 167 kts | 261° |
| 2026-04-24 08:47 | 33.95836 | -118.34110 | 1059 ft | 168 kts | 262° |
| 2026-04-24 08:47 | 33.95702 | -118.35457 | 868 ft | 156 kts | 262° |
| 2026-04-24 08:48 | 33.95576 | -118.36703 | 661 ft | 148 kts | 263° |
| 2026-04-24 08:48 | 33.95436 | -118.37938 | 479 ft | 149 kts | 262° |
| 2026-04-24 08:48 | 33.95310 | -118.39175 | 298 ft | 146 kts | 264° |
| 2026-04-24 08:48 | 33.95188 | -118.40365 | 159 ft | 143 kts | 264° |
| 2026-04-24 08:49 | 33.95082 | -118.41496 | 100 ft | 122 kts | 263° |
| 2026-04-24 08:49 | 33.95004 | -118.42218 | 102 ft | 46 kts | 263° |
| 2026-04-24 08:49 | 33.94917 | -118.42575 | 103 ft | 44 kts | 243° |
| 2026-04-24 08:49 | 33.94690 | -118.42778 | 105 ft | 33 kts | 181° |
| 2026-04-24 08:50 | 33.94641 | -118.42668 | 101 ft | 18 kts | 84° |
| 2026-04-24 08:50 | 33.94657 | -118.42498 | 101 ft | 22 kts | 84° |
| 2026-04-24 08:50 | 33.94675 | -118.42298 | 103 ft | 26 kts | 84° |
| 2026-04-24 08:50 | 33.94700 | -118.42073 | 102 ft | 28 kts | 82° |
| 2026-04-24 08:51 | 33.94715 | -118.41871 | 102 ft | 17 kts | 105° |
| 2026-04-24 08:51 | 33.94604 | -118.41814 | 101 ft | 20 kts | 172° |
| 2026-04-24 08:51 | 33.94450 | -118.41789 | 100 ft | 24 kts | 172° |
| 2026-04-24 08:51 | 33.94388 | -118.41778 | 102 ft | 7 kts | 160° |
| 2026-04-24 08:52 | 33.94355 | -118.41716 | 102 ft | 10 kts | 110° |
| 2026-04-24 08:52 | 33.94309 | -118.41652 | 102 ft | 1 kts | 113° |
| 2026-04-24 08:52 | 33.94291 | -118.41632 | 102 ft | 8 kts | 128° |
| 2026-04-24 08:52 | 33.94280 | -118.41575 | 100 ft | 0 kts | 91° |
| 2026-04-24 08:53 | 33.94281 | -118.41561 | 100 ft | 0 kts | 88° |